Time;durP1;ratioP1;P1;durP2;ratioP2;P2;SDS_P1;SDS_P2;PMS_P1;PMS_P2;Temp;Humidity;BMP_temperature;BMP_pressure;BME280_temperature;BME280_humidity;BME280_pressure;Samples;Min_cycle;Max_cycle;Signal;HPM_P1;HPM_P2
2022/05/12 00:01:49;;;;;;;3.72;2.25;;;;;;;20.71;46.86;100826.03;5034087;28;20399;-84
2022/05/12 00:04:14;;;;;;;2.85;2.00;;;;;;;20.74;47.09;100830.97;5017175;28;20029;-84
2022/05/12 00:06:40;;;;;;;3.75;2.13;;;;;;;20.75;47.52;100828.06;5037787;28;20406;-85
2022/05/12 00:09:05;;;;;;;6.45;2.00;;;;;;;20.56;47.89;100818.28;5035148;28;20041;-84
2022/05/12 00:11:31;;;;;;;4.57;2.10;;;;;;;20.60;48.16;100819.50;5035518;28;20038;-85
2022/05/12 00:13:57;;;;;;;5.10;2.38;;;;;;;20.51;49.51;100832.41;5050728;28;20104;-82
2022/05/12 00:16:23;;;;;;;8.45;2.72;;;;;;;20.44;51.06;100830.81;5056777;28;20021;-82
2022/05/12 00:18:51;;;;;;;11.65;3.65;;;;;;;20.24;52.73;100824.72;5053642;28;20093;-83
2022/05/12 00:21:16;;;;;;;5.53;3.15;;;;;;;20.18;53.41;100830.97;5045286;28;20026;-84
2022/05/12 00:23:56;;;;;;;5.78;3.67;;;;;;;20.01;55.38;100827.97;5030856;28;20057;-82
2022/05/12 00:26:33;;;;;;;8.82;3.55;;;;;;;19.97;55.83;100830.28;5006894;28;20030;-83
2022/05/12 00:29:00;;;;;;;8.32;4.07;;;;;;;19.87;57.05;100839.84;4998840;28;20153;-84
2022/05/12 00:31:27;;;;;;;7.47;4.18;;;;;;;19.96;56.60;100844.75;4994518;28;20434;-84
2022/05/12 00:33:53;;;;;;;11.93;4.65;;;;;;;19.82;57.48;100843.16;4976986;28;20042;-84
2022/05/12 00:36:18;;;;;;;7.85;4.13;;;;;;;19.83;58.23;100834.06;4977161;28;20365;-85
2022/05/12 00:38:45;;;;;;;9.07;3.97;;;;;;;19.92;57.83;100838.16;4994188;28;20034;-85
2022/05/12 00:41:11;;;;;;;8.93;4.53;;;;;;;19.86;57.94;100833.63;4993803;28;20413;-83
2022/05/12 00:43:46;;;;;;;9.50;5.47;;;;;;;19.77;58.18;100832.25;4993482;28;20117;-84
2022/05/12 00:46:18;;;;;;;7.80;4.30;;;;;;;19.71;59.12;100840.34;4994243;28;20101;-84
2022/05/12 00:48:45;;;;;;;12.80;4.50;;;;;;;19.69;58.63;100840.53;4976386;28;20449;-83
2022/05/12 00:51:14;;;;;;;8.65;4.72;;;;;;;19.61;59.63;100840.78;4993812;28;20065;-84
2022/05/12 00:53:41;;;;;;;13.63;4.43;;;;;;;19.60;58.98;100839.97;4992920;28;20105;-84
2022/05/12 00:56:11;;;;;;;7.72;4.55;;;;;;;19.49;59.56;100842.47;4993918;28;20034;-84
2022/05/12 00:58:38;;;;;;;5.65;4.40;;;;;;;19.49;60.18;100837.09;4993636;28;20126;-84
2022/05/12 01:01:06;;;;;;;11.23;4.40;;;;;;;19.51;59.43;100832.34;4993537;28;20031;-84
2022/05/12 01:03:32;;;;;;;10.98;4.00;;;;;;;19.64;58.40;100840.38;4993232;28;20125;-84
2022/05/12 01:05:58;;;;;;;7.65;4.28;;;;;;;19.56;58.10;100835.22;4976248;28;20062;-84
2022/05/12 01:08:24;;;;;;;9.50;3.60;;;;;;;19.66;59.17;100832.91;4993510;28;20042;-84
2022/05/12 01:10:58;;;;;;;10.70;4.13;;;;;;;19.66;58.91;100838.28;4993465;28;20401;-83
2022/05/12 01:13:24;;;;;;;8.07;3.50;;;;;;;19.77;59.18;100836.78;4993040;28;20080;-84
2022/05/12 01:15:56;;;;;;;10.65;3.65;;;;;;;19.77;58.29;100840.31;4993387;28;20113;-84
2022/05/12 01:18:23;;;;;;;7.20;2.60;;;;;;;19.79;57.94;100835.53;4993308;28;20065;-85
2022/05/12 01:20:50;;;;;;;5.45;3.67;;;;;;;19.72;57.52;100834.72;4994037;28;20038;-84
2022/05/12 01:23:22;;;;;;;7.60;4.03;;;;;;;19.60;58.53;100834.59;4995244;28;20509;-84
2022/05/12 01:25:48;;;;;;;7.32;3.60;;;;;;;19.47;58.67;100834.63;4996645;28;20035;-84
2022/05/12 01:28:13;;;;;;;8.15;3.85;;;;;;;19.35;59.39;100832.78;5005704;28;20070;-84
2022/05/12 01:30:39;;;;;;;7.57;4.10;;;;;;;19.41;58.90;100840.88;5014153;28;20034;-83
2022/05/12 01:33:05;;;;;;;8.43;4.80;;;;;;;19.17;60.46;100844.19;5011593;28;20061;-84
2022/05/12 01:35:34;;;;;;;8.43;3.97;;;;;;;19.27;59.99;100846.44;5011023;28;20042;-84
2022/05/12 01:37:59;;;;;;;10.25;3.65;;;;;;;19.52;59.39;100848.25;5003154;28;20243;-82
2022/05/12 01:40:26;;;;;;;9.82;3.55;;;;;;;19.65;59.73;100847.41;4991229;28;20058;-85
2022/05/12 01:42:53;;;;;;;8.85;3.25;;;;;;;19.71;59.40;100843.84;5000321;28;20134;-84
2022/05/12 01:45:20;;;;;;;12.80;3.95;;;;;;;19.63;59.87;100846.78;4992929;28;20418;-85
2022/05/12 01:47:46;;;;;;;7.05;4.15;;;;;;;19.49;60.61;100842.47;4993467;28;20038;-84
2022/05/12 01:50:13;;;;;;;8.07;3.90;;;;;;;19.33;62.28;100848.28;4993576;28;20065;-84
2022/05/12 01:52:43;;;;;;;13.27;3.70;;;;;;;19.30;62.21;100852.22;4993303;28;20041;-85
2022/05/12 01:55:14;;;;;;;8.80;3.90;;;;;;;19.07;63.85;100854.56;4993297;28;20517;-84
2022/05/12 01:57:43;;;;;;;6.93;3.70;;;;;;;19.13;63.21;100852.88;4993391;28;20030;-84
2022/05/12 02:00:14;;;;;;;5.35;3.38;;;;;;;19.21;62.43;100855.34;4975962;28;20045;-83
2022/05/12 02:02:40;;;;;;;7.78;3.95;;;;;;;19.21;62.70;100858.88;4993097;28;20393;-84
2022/05/12 02:05:09;;;;;;;9.73;3.70;;;;;;;19.14;63.43;100862.59;4996153;28;20022;-84
2022/05/12 02:07:47;;;;;;;5.78;3.88;;;;;;;19.05;64.51;100857.47;4996841;28;20042;-83
2022/05/12 02:10:20;;;;;;;6.13;3.72;;;;;;;19.07;64.07;100850.00;4996727;28;20062;-83
2022/05/12 02:12:45;;;;;;;9.18;3.95;;;;;;;19.26;63.43;100847.47;4996474;28;20031;-84
2022/05/12 02:15:11;;;;;;;6.00;3.95;;;;;;;19.29;63.26;100853.25;4996768;28;20048;-84
2022/05/12 02:17:37;;;;;;;11.07;4.30;;;;;;;19.12;64.65;100852.09;4996281;28;20038;-84
2022/05/12 02:20:04;;;;;;;8.80;3.95;;;;;;;19.05;65.46;100854.78;4996483;28;20030;-83
2022/05/12 02:22:29;;;;;;;5.97;3.60;;;;;;;18.96;66.01;100853.31;4996410;28;20490;-84
2022/05/12 02:24:55;;;;;;;8.02;3.85;;;;;;;19.04;66.02;100845.06;5017859;28;20041;-84
2022/05/12 02:27:21;;;;;;;7.07;4.35;;;;;;;19.05;65.97;100857.47;5017961;28;20041;-83
2022/05/12 02:29:47;;;;;;;5.43;3.65;;;;;;;19.00;66.03;100854.56;5035965;28;20032;-85
2022/05/12 02:32:12;;;;;;;6.28;3.85;;;;;;;19.06;65.71;100851.03;5035410;28;20045;-84
2022/05/12 02:34:38;;;;;;;6.70;4.47;;;;;;;18.94;66.33;100850.03;5035656;28;20038;-85
2022/05/12 02:37:05;;;;;;;11.95;4.63;;;;;;;18.82;66.94;100846.34;5017785;28;20038;-84
2022/05/12 02:39:40;;;;;;;8.23;3.97;;;;;;;18.87;67.04;100848.38;5017476;28;20057;-84
2022/05/12 02:42:07;;;;;;;5.30;3.60;;;;;;;18.89;66.67;100846.31;5017928;28;20043;-84
2022/05/12 02:44:34;;;;;;;6.55;4.13;;;;;;;18.63;68.92;100846.34;5034957;28;20057;-85
2022/05/12 02:46:59;;;;;;;9.88;4.65;;;;;;;18.54;69.25;100840.34;5035176;28;20037;-84
2022/05/12 02:49:25;;;;;;;5.97;4.00;;;;;;;18.68;68.63;100835.78;5035421;28;20132;-84
2022/05/12 02:51:51;;;;;;;10.05;4.15;;;;;;;18.73;67.96;100836.81;5034930;28;20449;-83
2022/05/12 02:54:18;;;;;;;13.50;4.10;;;;;;;18.52;69.26;100845.94;5010849;28;20081;-84
2022/05/12 02:56:44;;;;;;;8.27;4.03;;;;;;;18.37;70.25;100853.28;4979312;28;20042;-84
2022/05/12 02:59:13;;;;;;;11.55;4.20;;;;;;;18.28;72.10;100848.34;4995799;28;20046;-85
2022/05/12 03:01:39;;;;;;;6.95;4.25;;;;;;;18.16;71.73;100845.44;4995843;28;20440;-84
2022/05/12 03:04:06;;;;;;;6.95;4.35;;;;;;;17.91;72.89;100853.19;4995300;28;20074;-85
2022/05/12 03:06:31;;;;;;;8.98;4.03;;;;;;;17.99;73.26;100844.16;4978280;28;20043;-83
2022/05/12 03:08:58;;;;;;;7.38;3.92;;;;;;;17.73;75.25;100850.22;4995534;28;20045;-84
2022/05/12 03:11:24;;;;;;;5.88;3.80;;;;;;;17.57;76.35;100845.22;4995854;28;20113;-84
2022/05/12 03:13:50;;;;;;;7.43;4.30;;;;;;;17.68;76.14;100847.34;4977329;28;20073;-84
2022/05/12 03:16:18;;;;;;;5.80;4.22;;;;;;;17.68;75.97;100855.38;4977768;28;20085;-84
2022/05/12 03:18:51;;;;;;;7.32;3.95;;;;;;;17.80;75.34;100853.78;4978036;28;20050;-85
2022/05/12 03:21:17;;;;;;;;;;;;;;;17.50;76.57;100849.69;4995945;28;20038;-85
2022/05/12 03:23:43;;;;;;;6.93;3.85;;;;;;;17.53;76.36;100850.13;4995363;28;19956;-84
2022/05/12 03:26:09;;;;;;;7.18;3.40;;;;;;;17.76;74.68;100849.88;4994894;28;20038;-84
2022/05/12 03:28:35;;;;;;;11.10;4.05;;;;;;;17.84;72.95;100852.34;4995221;28;20437;-84
2022/05/12 03:31:01;;;;;;;6.65;4.03;;;;;;;17.81;73.36;100846.56;4977731;28;20042;-84
2022/05/12 03:33:27;;;;;;;8.60;3.92;;;;;;;17.79;72.68;100848.63;4995062;28;20042;-85
2022/05/12 03:35:53;;;;;;;6.57;3.53;;;;;;;17.84;73.01;100846.16;4995620;28;20046;-84
2022/05/12 03:38:19;;;;;;;10.20;3.88;;;;;;;17.80;72.31;100856.44;4995555;28;20143;-84
2022/05/12 03:40:45;;;;;;;10.18;3.50;;;;;;;17.87;71.81;100857.31;4996088;28;20390;-84
2022/05/12 03:44:46;;;;;;;5.07;3.17;;;;;;;18.01;71.10;100860.84;4995396;28;20060;-83
2022/05/12 03:45:57;;;;;;;7.57;3.92;;;;;;;17.72;72.14;100859.31;4994905;28;20402;-84
2022/05/12 03:48:23;;;;;;;9.00;3.60;;;;;;;17.79;72.10;100860.19;4985331;28;20084;-85
2022/05/12 03:50:49;;;;;;;10.00;3.50;;;;;;;17.71;73.26;100857.66;4995080;28;20061;-82
2022/05/12 03:53:15;;;;;;;7.05;3.90;;;;;;;17.67;73.54;100872.50;4994759;28;20485;-83
2022/05/12 03:55:40;;;;;;;13.75;4.30;;;;;;;17.60;73.84;100877.00;4995027;28;20030;-85
2022/05/12 03:58:06;;;;;;;12.57;3.83;;;;;;;17.70;73.77;100880.13;4995207;28;20093;-83
2022/05/12 04:00:32;;;;;;;6.88;3.63;;;;;;;17.63;73.66;100876.63;4994644;28;20454;-83
2022/05/12 04:02:57;;;;;;;8.45;3.72;;;;;;;17.64;73.54;100880.94;4994896;28;20116;-83
2022/05/12 04:05:27;;;;;;;6.05;3.30;;;;;;;17.80;72.55;100872.53;4998003;28;20121;-84
2022/05/12 04:07:55;;;;;;;;;;;;;;;17.76;71.52;100882.03;4959795;28;20434;-83
2022/05/12 04:10:21;;;;;;;10.65;4.10;;;;;;;17.81;71.22;100879.56;4996857;28;19952;-82
2022/05/12 04:12:48;;;;;;;11.60;3.97;;;;;;;17.80;72.01;100877.91;5005389;28;20038;-82
2022/05/12 04:15:16;;;;;;;9.32;3.50;;;;;;;17.73;72.04;100884.28;5003210;28;20149;-83
2022/05/12 04:17:53;;;;;;;7.70;3.60;;;;;;;17.45;73.95;100873.59;5014229;28;20041;-83
2022/05/12 04:20:19;;;;;;;8.70;4.05;;;;;;;17.42;74.22;100874.00;5014356;28;20030;-84
2022/05/12 04:22:44;;;;;;;8.40;3.75;;;;;;;17.08;74.54;100882.00;5014407;28;20040;-83
2022/05/12 04:25:11;;;;;;;7.03;4.28;;;;;;;16.73;76.96;100883.81;5014334;28;20104;-83
2022/05/12 04:27:38;;;;;;;11.85;4.38;;;;;;;16.59;79.03;100888.22;5013089;28;20396;-84
2022/05/12 04:30:06;;;;;;;11.68;4.28;;;;;;;16.57;80.92;100890.28;5013351;28;20069;-83
2022/05/12 04:32:32;;;;;;;11.10;3.80;;;;;;;16.62;80.04;100898.53;5013084;28;20065;-84
2022/05/12 04:35:13;;;;;;;10.57;3.83;;;;;;;16.55;81.32;100892.28;5014021;28;20073;-82
2022/05/12 04:37:41;;;;;;;17.50;4.55;;;;;;;16.64;81.06;100896.47;5013934;28;20038;-82
2022/05/12 04:40:16;;;;;;;19.17;4.45;;;;;;;16.74;81.06;100896.97;5014653;28;20041;-83
2022/05/12 04:42:43;;;;;;;13.18;4.03;;;;;;;16.86;80.41;100899.97;4996411;28;20049;-86
2022/05/12 04:45:11;;;;;;;9.30;3.97;;;;;;;17.19;78.32;100900.22;5014546;28;20095;-85
2022/05/12 04:47:38;;;;;;;7.60;4.35;;;;;;;17.20;78.03;100904.56;5014521;28;20036;-83
2022/05/12 04:50:05;;;;;;;12.73;3.92;;;;;;;17.27;78.25;100913.44;5014134;28;20545;-82
2022/05/12 04:52:31;;;;;;;12.32;4.40;;;;;;;17.29;78.18;100909.56;4997372;28;20075;-85
2022/05/12 04:54:57;;;;;;;12.35;4.28;;;;;;;17.36;78.37;100896.22;5014160;28;20038;-81
2022/05/12 04:57:23;;;;;;;15.13;4.20;;;;;;;17.13;79.97;100901.00;5013591;28;20037;-83
2022/05/12 04:59:55;;;;;;;19.50;4.43;;;;;;;17.11;80.65;100898.50;5013892;28;20037;-85
2022/05/12 05:02:22;;;;;;;12.95;4.78;;;;;;;17.45;79.50;100905.75;5013538;28;20042;-83
2022/05/12 05:04:51;;;;;;;13.73;4.90;;;;;;;17.42;79.02;100915.03;5013087;28;20034;-83
2022/05/12 05:07:17;;;;;;;10.93;4.97;;;;;;;17.70;77.81;100916.84;5012812;28;20034;-83
2022/05/12 05:09:43;;;;;;;14.65;4.90;;;;;;;17.69;78.14;100924.06;5013577;28;20042;-82
2022/05/12 05:12:09;;;;;;;17.52;4.47;;;;;;;17.79;77.11;100919.16;5013349;28;20385;-83
2022/05/12 05:14:36;;;;;;;15.93;5.00;;;;;;;17.81;77.44;100917.09;5017031;28;20042;-83
2022/05/12 05:17:02;;;;;;;14.98;4.90;;;;;;;18.00;76.27;100918.19;5013464;28;20424;-86
2022/05/12 05:19:28;;;;;;;11.88;5.22;;;;;;;18.10;75.82;100912.50;4996226;28;20096;-86
2022/05/12 05:21:53;;;;;;;14.50;5.63;;;;;;;18.31;76.01;100913.16;5013725;28;20026;-86
2022/05/12 05:24:19;;;;;;;12.70;5.32;;;;;;;18.58;74.16;100916.75;5013226;28;20345;-84
2022/05/12 05:26:44;;;;;;;16.02;5.15;;;;;;;18.54;75.71;100920.88;5013380;28;20032;-83
2022/05/12 05:29:10;;;;;;;17.75;5.60;;;;;;;18.82;74.07;100926.91;5013473;28;20026;-86
2022/05/12 05:31:39;;;;;;;15.70;5.07;;;;;;;19.10;72.57;100919.44;5014037;28;20030;-87
2022/05/12 05:34:06;;;;;;;10.80;5.43;;;;;;;19.30;70.69;100929.34;4995894;28;20026;-85
2022/05/12 05:36:31;;;;;;;14.25;5.90;;;;;;;19.62;70.38;100927.66;5012922;28;20026;-84
2022/05/12 05:38:57;;;;;;;11.07;5.25;;;;;;;19.91;68.60;100927.16;5015394;28;20384;-88
2022/05/12 05:41:24;;;;;;;16.48;6.30;;;;;;;20.15;67.04;100929.09;5019842;28;20037;-87
2022/05/12 05:43:50;;;;;;;13.52;5.95;;;;;;;20.50;66.01;100937.66;5001440;28;20034;-84
2022/05/12 05:46:16;;;;;;;15.32;6.65;;;;;;;20.98;63.36;100929.84;5017119;28;20070;-84
2022/05/12 05:48:43;;;;;;;11.82;6.30;;;;;;;21.61;61.30;100935.88;5019875;28;20030;-84
2022/05/12 05:53:54;;;;;;;19.85;8.48;;;;;;;22.54;55.69;100952.59;5016739;28;20433;-83
2022/05/12 05:56:22;;;;;;;15.55;8.80;;;;;;;22.78;55.94;100954.34;4999647;28;20026;-82
2022/05/12 05:58:48;;;;;;;19.80;8.20;;;;;;;22.97;55.07;100964.00;5016322;28;20384;-82
2022/05/12 06:01:15;;;;;;;19.45;9.40;;;;;;;23.24;53.27;100974.41;5017318;28;20434;-83
2022/05/12 06:03:40;;;;;;;20.83;9.77;;;;;;;23.01;54.51;100970.63;5016474;28;20038;-86
2022/05/12 06:06:09;;;;;;;17.30;9.30;;;;;;;23.22;53.43;100971.94;5016596;28;20388;-84
2022/05/12 06:08:34;;;;;;;13.85;8.82;;;;;;;23.28;53.80;100970.16;5016581;28;20033;-84
2022/05/12 06:11:04;;;;;;;15.15;8.00;;;;;;;23.54;53.02;100965.16;5018226;28;20472;-85
2022/05/12 06:13:32;;;;;;;14.55;8.57;;;;;;;23.58;53.26;100960.09;4983515;28;20041;-91
2022/05/12 06:16:01;;;;;;;15.82;8.68;;;;;;;23.65;52.54;100960.78;4983668;28;20100;-84
2022/05/12 06:18:27;;;;;;;16.58;8.20;;;;;;;23.42;53.84;100963.50;5018324;28;20033;-84
2022/05/12 06:20:53;;;;;;;15.85;8.52;;;;;;;23.70;52.88;100969.00;5021657;28;20069;-85
2022/05/12 06:23:18;;;;;;;12.88;8.43;;;;;;;24.58;50.59;100971.38;5016960;28;20434;-87
2022/05/12 06:25:47;;;;;;;17.63;9.15;;;;;;;24.51;50.72;100979.66;5016813;28;20072;-88
2022/05/12 06:28:13;;;;;;;18.05;9.02;;;;;;;24.17;51.58;100973.31;5016528;28;20038;-85
2022/05/12 06:30:40;;;;;;;17.40;9.48;;;;;;;24.23;50.96;100981.53;4999492;28;20092;-86
2022/05/12 06:33:06;;;;;;;14.20;7.70;;;;;;;24.52;50.30;100983.19;5018119;28;20441;-86
2022/05/12 06:35:32;;;;;;;23.38;9.13;;;;;;;24.37;51.61;100981.00;5003658;28;20524;-84
2022/05/12 06:37:57;;;;;;;11.32;8.43;;;;;;;24.81;49.97;100982.09;4986598;28;20061;-85
2022/05/12 06:40:23;;;;;;;26.40;8.48;;;;;;;24.90;49.38;100987.97;5007533;28;20038;-88
2022/05/12 06:42:50;;;;;;;14.15;7.82;;;;;;;24.89;49.65;100991.75;5002953;28;20045;-83
2022/05/12 06:45:20;;;;;;;10.57;7.15;;;;;;;25.03;49.88;100996.59;5005152;28;20034;-84
2022/05/12 06:47:50;;;;;;;17.10;7.47;;;;;;;25.29;48.68;101002.47;5012368;28;20401;-83
2022/05/12 06:50:25;;;;;;;11.45;6.75;;;;;;;25.38;48.10;100998.25;4981079;28;20049;-89
2022/05/12 06:52:53;;;;;;;14.23;7.18;;;;;;;24.98;49.41;100993.81;5014703;28;20074;-82
2022/05/12 06:55:20;;;;;;;15.50;7.40;;;;;;;25.39;48.42;101000.72;5018305;28;20048;-83
2022/05/12 06:57:46;;;;;;;12.38;5.80;;;;;;;25.94;46.79;100991.78;5015487;28;20037;-83
2022/05/12 07:00:16;;;;;;;12.05;6.45;;;;;;;25.73;47.12;100996.09;5015343;28;20029;-83
2022/05/12 07:02:44;;;;;;;15.77;7.05;;;;;;;26.19;46.33;100998.38;5009550;28;20042;-82
2022/05/12 07:05:11;;;;;;;13.68;6.80;;;;;;;26.53;46.33;101000.94;4986681;28;20026;-88
2022/05/12 07:07:36;;;;;;;10.23;6.00;;;;;;;26.53;45.72;100996.31;5006415;28;20034;-83
2022/05/12 07:10:04;;;;;;;10.95;5.53;;;;;;;26.68;45.42;101006.53;5003309;28;20104;-84
2022/05/12 07:12:29;;;;;;;12.02;7.18;;;;;;;26.80;45.90;101007.19;5006267;28;20034;-86
2022/05/12 07:14:56;;;;;;;21.95;7.57;;;;;;;26.85;45.76;100998.28;5008409;28;20034;-85
2022/05/12 07:17:22;;;;;;;19.17;5.30;;;;;;;27.62;44.20;100998.66;5017338;28;20037;-87
2022/05/12 07:19:49;;;;;;;11.68;6.03;;;;;;;27.53;42.93;100992.91;4996793;28;20172;-83
2022/05/12 07:27:57;;;;;;;11.43;5.32;;;;;;;27.69;43.36;101007.41;5015461;28;20042;-85
2022/05/12 07:31:00;;;;;;;13.68;5.50;;;;;;;27.07;43.47;101005.31;5016572;28;20045;-88
2022/05/12 07:33:10;;;;;;;11.65;5.40;;;;;;;27.54;43.37;101002.69;5019170;28;20037;-85
2022/05/12 07:35:35;;;;;;;18.50;6.20;;;;;;;27.33;44.51;101005.50;5020661;28;20492;-85
2022/05/12 07:38:01;;;;;;;19.70;6.53;;;;;;;27.77;43.78;101006.13;5017721;28;20038;-86
2022/05/12 07:40:28;;;;;;;12.65;6.63;;;;;;;27.57;43.09;101006.81;5015553;28;20088;-83
2022/05/12 07:42:53;;;;;;;22.15;6.60;;;;;;;27.88;42.62;101002.34;5016683;28;20129;-84
2022/05/12 07:45:20;;;;;;;14.68;6.72;;;;;;;27.42;43.38;101003.94;5013611;28;20124;-83
2022/05/12 07:47:46;;;;;;;19.83;6.10;;;;;;;27.62;44.15;101009.56;4980842;28;20116;-84
2022/05/12 07:50:11;;;;;;;9.25;5.38;;;;;;;28.91;41.84;101012.28;5015243;28;20433;-84
2022/05/12 07:52:37;;;;;;;14.88;7.22;;;;;;;27.84;43.13;101010.22;5014854;28;20034;-91
2022/05/12 07:55:02;;;;;;;18.75;6.82;;;;;;;28.13;43.07;101006.06;5015688;28;20444;-86
2022/05/12 07:57:28;;;;;;;14.77;7.13;;;;;;;27.84;44.01;101010.22;5015329;28;20073;-84
2022/05/12 07:59:54;;;;;;;14.43;6.95;;;;;;;27.92;43.24;101001.56;5015053;28;20396;-83
2022/05/12 08:02:20;;;;;;;17.13;7.32;;;;;;;28.29;42.22;101011.56;5010565;28;20030;-90
2022/05/12 08:04:46;;;;;;;12.85;6.60;;;;;;;28.05;42.04;100997.53;4995635;28;20438;-84
2022/05/12 08:07:12;;;;;;;18.38;7.40;;;;;;;28.80;41.64;100997.00;4996202;28;20030;-88
2022/05/12 08:09:37;;;;;;;14.32;7.18;;;;;;;28.94;40.70;101000.81;4990871;28;20054;-85
2022/05/12 08:12:03;;;;;;;21.67;10.48;;;;;;;28.28;42.33;101001.72;5016232;28;20145;-86
2022/05/12 08:14:29;;;;;;;28.13;12.40;;;;;;;28.59;42.39;101009.75;4986545;28;20026;-84
2022/05/12 08:16:54;;;;;;;35.83;16.02;;;;;;;28.94;41.17;101008.19;5031318;28;20034;-86
2022/05/12 08:19:20;;;;;;;21.20;12.43;;;;;;;28.90;41.48;101007.09;5014364;28;20120;-86
2022/05/12 08:21:45;;;;;;;50.95;22.17;;;;;;;29.30;40.35;101014.53;5014093;28;20026;-83
2022/05/12 08:24:11;;;;;;;31.48;16.38;;;;;;;28.37;42.17;101005.59;4989309;28;20038;-85
2022/05/12 08:26:36;;;;;;;20.13;9.05;;;;;;;29.08;40.42;101010.13;5004010;28;20116;-85
2022/05/12 08:29:02;;;;;;;18.55;9.25;;;;;;;28.98;40.47;101007.38;5021813;28;20369;-85
2022/05/12 08:31:30;;;;;;;15.60;7.93;;;;;;;29.73;38.70;101008.44;5033739;28;20029;-85
2022/05/12 08:33:56;;;;;;;12.27;8.00;;;;;;;29.95;38.51;101014.41;5033601;28;20069;-84
2022/05/12 08:36:22;;;;;;;12.75;7.03;;;;;;;29.89;38.28;101011.97;5033063;28;20060;-83
2022/05/12 08:38:47;;;;;;;16.80;6.55;;;;;;;29.57;39.62;101020.47;5011897;28;20034;-86
2022/05/12 08:41:51;;;;;;;12.57;7.60;;;;;;;29.48;39.57;101016.66;5013686;28;20030;-85
2022/05/12 08:44:20;;;;;;;16.02;7.97;;;;;;;29.65;38.82;101017.19;5012273;28;20045;-90
2022/05/12 08:46:53;;;;;;;14.52;7.15;;;;;;;30.64;37.79;101024.50;5013153;28;20029;-84
2022/05/12 08:49:21;;;;;;;15.68;9.70;;;;;;;29.95;38.77;101022.63;5011929;28;20068;-83
2022/05/12 08:51:52;;;;;;;19.35;8.15;;;;;;;30.69;37.03;101013.56;5013269;28;20042;-84
2022/05/12 08:54:21;;;;;;;20.08;9.00;;;;;;;30.82;37.03;101023.03;5007536;28;20057;-85
2022/05/12 08:56:48;;;;;;;16.13;9.23;;;;;;;31.07;35.71;101023.69;5003900;28;20037;-83
2022/05/12 08:59:14;;;;;;;20.55;8.77;;;;;;;30.22;37.69;101016.78;5001917;28;20023;-85
2022/05/12 09:02:18;;;;;;;22.67;9.38;;;;;;;30.09;38.26;101009.19;4998919;28;20045;-83
2022/05/12 09:05:07;;;;;;;17.38;10.38;;;;;;;30.48;38.15;101006.56;4933860;29;20102;-84
2022/05/12 09:07:37;;;;;;;18.65;8.25;;;;;;;30.57;38.25;101002.13;5010625;28;20564;-86
2022/05/12 09:10:44;;;;;;;18.92;8.93;;;;;;;30.06;38.48;101007.81;5013157;28;20069;-85
2022/05/12 09:13:18;;;;;;;19.27;7.93;;;;;;;30.92;37.03;101004.63;4970604;28;20493;-87
2022/05/12 09:15:56;;;;;;;13.65;7.53;;;;;;;30.78;37.69;101000.91;5013481;28;20044;-85
2022/05/12 09:18:33;;;;;;;15.23;6.70;;;;;;;31.40;36.24;101005.59;5013182;28;20109;-84
2022/05/12 09:21:07;;;;;;;9.48;5.97;;;;;;;32.03;34.65;101009.06;5013471;28;20440;-85
2022/05/12 09:23:33;;;;;;;9.55;6.18;;;;;;;31.68;34.87;101013.03;5013306;28;20504;-85
2022/05/12 09:25:59;;;;;;;19.88;7.38;;;;;;;31.67;35.00;101005.91;5012856;28;20034;-86
2022/05/12 09:28:36;;;;;;;14.60;6.28;;;;;;;32.61;34.15;101004.25;5002098;28;20124;-87
2022/05/12 09:31:18;;;;;;;15.50;6.60;;;;;;;31.84;34.54;101016.41;4986340;28;20037;-86
2022/05/12 09:33:50;;;;;;;11.60;6.32;;;;;;;31.76;34.91;101003.34;4986757;28;20113;-86
2022/05/12 09:36:21;;;;;;;13.32;6.60;;;;;;;31.27;34.83;101001.63;5003222;28;20073;-85
2022/05/12 09:38:48;;;;;;;10.13;6.20;;;;;;;31.38;35.21;101007.00;5002461;28;20034;-85
2022/05/12 09:41:22;;;;;;;14.68;5.97;;;;;;;31.76;33.87;100997.84;5002919;28;20115;-84
2022/05/12 09:43:54;;;;;;;9.60;5.82;;;;;;;30.96;36.48;100993.94;4984738;28;20042;-86
2022/05/12 09:46:29;;;;;;;24.40;6.57;;;;;;;30.32;37.40;100988.56;4983993;28;20046;-88
2022/05/12 09:49:14;;;;;;;15.95;6.40;;;;;;;29.66;37.82;100980.59;5002582;28;20075;-83
2022/05/12 09:51:40;;;;;;;11.60;6.03;;;;;;;30.73;34.91;100984.50;5001834;28;20026;-84
2022/05/12 09:54:28;;;;;;;16.15;5.60;;;;;;;30.41;35.89;100976.78;5000981;28;20162;-84
2022/05/12 09:57:15;;;;;;;14.65;5.30;;;;;;;30.31;36.37;100976.78;5005571;28;20030;-83
2022/05/12 09:59:43;;;;;;;16.70;4.60;;;;;;;30.64;34.23;100983.47;5001319;28;20056;-85
2022/05/12 10:07:53;;;;;;;11.30;4.30;;;;;;;30.97;34.13;100990.09;4984503;28;20031;-85
2022/05/12 10:08:24;;;;;;;7.53;3.80;;;;;;;31.78;32.61;100980.00;4985091;28;20042;-89
2022/05/12 10:11:02;;;;;;;14.32;3.85;;;;;;;32.00;31.77;100982.22;4970473;28;20030;-87
2022/05/12 10:13:52;;;;;;;11.15;4.55;;;;;;;32.11;31.18;100975.53;5005756;28;20038;-86
2022/05/12 10:16:28;;;;;;;11.13;4.20;;;;;;;31.19;34.63;100974.84;5000512;28;20446;-87
2022/05/12 10:19:08;;;;;;;11.75;3.90;;;;;;;31.32;33.13;100978.84;5005308;28;20099;-86
2022/05/12 10:21:44;;;;;;;9.38;4.00;;;;;;;31.32;33.04;100980.78;4993047;28;20034;-85
2022/05/12 10:24:37;;;;;;;11.93;3.65;;;;;;;31.01;31.66;100975.56;5007353;28;20069;-89
2022/05/12 10:27:18;;;;;;;9.77;3.42;;;;;;;31.50;30.15;100977.28;4997271;28;20053;-86
2022/05/12 10:29:53;;;;;;;8.88;3.55;;;;;;;31.29;31.79;100973.13;5018465;28;20038;-87
2022/05/12 10:32:51;;;;;;;9.57;3.05;;;;;;;31.38;30.68;100974.13;5000196;28;20073;-87
2022/05/12 10:35:26;;;;;;;9.65;3.83;;;;;;;30.21;33.46;100969.47;4946574;28;20047;-88
2022/05/12 10:38:06;;;;;;;5.72;2.95;;;;;;;30.74;32.50;100961.50;5020674;28;20014;-86
2022/05/12 10:40:46;;;;;;;6.95;3.30;;;;;;;31.26;31.96;100964.38;5014531;28;20042;-84
2022/05/12 10:43:37;;;;;;;7.72;3.15;;;;;;;31.43;32.39;100966.66;5014603;28;20592;-85
2022/05/12 10:46:25;;;;;;;9.32;3.70;;;;;;;31.53;32.66;100960.28;5015828;28;20034;-83
2022/05/12 10:49:03;;;;;;;9.52;3.22;;;;;;;32.03;31.41;100953.38;5016160;28;20026;-90
2022/05/12 10:51:56;;;;;;;14.75;3.45;;;;;;;32.08;31.90;100951.44;5010370;28;20535;-83
2022/05/12 10:54:45;;;;;;;13.50;3.72;;;;;;;32.04;31.75;100950.41;4999010;28;20453;-83
2022/05/12 10:57:39;;;;;;;15.80;3.50;;;;;;;32.53;32.01;100941.75;5004785;28;20045;-85
2022/05/12 11:00:26;;;;;;;11.32;4.07;;;;;;;31.95;30.46;100940.34;5019360;28;20064;-92
2022/05/12 11:03:01;;;;;;;11.25;3.47;;;;;;;32.31;30.59;100943.44;5017179;28;20116;-84
2022/05/12 11:05:37;;;;;;;10.50;3.40;;;;;;;31.73;31.14;100951.84;5017482;28;20048;-86
2022/05/12 11:08:37;;;;;;;14.85;3.67;;;;;;;31.48;31.69;100941.16;5018143;28;20026;-89
2022/05/12 11:11:10;;;;;;;10.52;3.55;;;;;;;31.53;31.71;100943.84;5008291;28;20030;-88
2022/05/12 11:13:43;;;;;;;12.43;3.70;;;;;;;31.32;32.83;100931.47;4994874;28;20043;-88
2022/05/12 11:16:15;;;;;;;14.52;3.80;;;;;;;31.55;33.03;100938.91;5003622;28;20036;-90
2022/05/12 11:19:16;;;;;;;10.75;4.28;;;;;;;31.72;32.47;100931.00;5016324;28;20030;-88
2022/05/12 11:22:21;;;;;;;10.40;3.20;;;;;;;32.72;30.76;100928.81;4936103;29;20107;-87
2022/05/12 11:24:58;;;;;;;10.73;3.22;;;;;;;32.41;31.35;100921.34;4997514;28;20049;-86
2022/05/12 11:27:33;;;;;;;13.85;3.70;;;;;;;32.06;32.14;100917.19;5005666;28;20092;-91
2022/05/12 11:30:31;;;;;;;13.38;3.70;;;;;;;32.03;32.33;100910.34;4991125;28;20043;-86
2022/05/12 11:33:35;;;;;;;8.23;3.55;;;;;;;31.02;34.05;100916.16;4994959;28;20128;-88
2022/05/12 11:36:01;;;;;;;11.45;3.10;;;;;;;30.75;34.41;100916.63;4974491;28;20046;-86
2022/05/12 11:38:37;;;;;;;7.25;2.83;;;;;;;30.71;35.03;100910.06;4995654;28;20101;-84
2022/05/12 11:41:05;;;;;;;9.57;2.97;;;;;;;30.27;35.74;100905.44;5008216;28;20033;-87
2022/05/12 11:46:23;;;;;;;9.23;3.28;;;;;;;29.96;36.66;100909.44;5014456;28;20030;-87
2022/05/12 11:49:26;;;;;;;13.80;4.88;;;;;;;29.29;37.15;100899.00;5014183;28;20551;-86